/BCO-DMO/OA_Hypoxia_and_Warming/propagule_DIC_alk ---- Level 0

      Directory  DocumentationDownload and Other Operations...

 - At level 0 -  - At last level -       Flat list

#   Multistressor experiment DIC & alkalinity (propagule)
#     time series, June 2013 - April 2014
#   PI: J. Bernhard (WHOI)
#   version: 2016-12-16
# 
#     NOTE: Treatments had different oxygen and/or pCO2. I = Ambient (control); II = Hypoxic; III = Acidified; IV = Hypoxic + Acidified; V = Preindustrial
# 
=========================
date        treatment  temp  O2_nom  pCO2_nom  salinity  alkalinity  DIC    
-------------------------
2013-06-19  I          7     7.1     400       35        2171.94     2124.42  
2013-06-26  I          7     7.1     400       35        2152.36     2106.8  
2013-07-10  I          7     7.1     400       35        2228.07     2187.3  
2013-07-24  I          7     7.1     400       35        2256.57     2090.18  
2013-08-21  I          7     7.1     400       35        2131.6      1972.66  
2013-09-05  I          7     7.1     400       35        2092.95     1964.50  
2013-09-17  I          7     7.1     400       35        2095.80     1960.26  
2013-10-02  I          7     7.1     400       35        2138.50     1962.25  
2013-10-17  I          7     7.1     400       35        2085.91     1962.11  
2013-10-30  I          7     7.1     400       35        2095.12     1949.26  
2013-11-13  I          7     7.1     400       35        2031.92     1867.97  
2013-12-11  I          7     7.1     400       35        2012.74     1898.30  
2013-12-20  I          7     7.1     400       35        2096.705    1966.38  
2014-01-08  I          7     7.1     400       35        2065.975    1940.17  
2014-01-23  I          9     7.1     400       35        2170.195    2066.20  
2014-02-06  I          9     7.1     400       35        2154.93     2020.94  
2014-02-19  I          9     7.1     400       35        2159.32     1964.48  
2014-03-19  I          9     7.1     400       35        1968.0      1843.08  
2014-04-02  I          9     7.1     400       35        2125.1      1978.39  
2013-06-19  II         7     0.7     400       35        1977.34     1631.98  
2013-06-26  II         7     0.7     400       35        1913.14     1646.06  
2013-07-10  II         7     0.7     400       35        1890.99     1537.12  
2013-07-24  II         7     0.7     400       35        2087.18     1969.81  
2013-08-07  II         7     0.7     400       35        1984.0      1852.90  
2013-08-21  II         7     0.7     400       35        2245.7      2085.50  
2013-09-05  II         7     0.7     400       35        2280.41     2100.48  
2013-09-17  II         7     0.7     400       35        2260.33     2077.35  
2013-10-02  II         7     0.7     400       35        2223.41     2084.54  
2013-10-17  II         7     0.7     400       35        2292.15     2101.41  
2013-10-30  II         7     0.7     400       35        2324.62     2147.22  
2013-11-13  II         7     0.7     400       35        2209.16     2096.09  
2013-12-11  II         7     0.7     400       35        2220.69     2111.31  
2013-12-20  II         7     0.7     400       35        2230.265    2133.44  
2014-01-08  II         7     0.7     400       35        2212.485    2104.25  
2014-01-23  II         9     0.7     400       35        2274.57     2153.02  
2014-02-06  II         9     0.7     400       35        2110.47     1999.81  
2014-02-19  II         9     0.7     400       35        2130.925    1976.28  
2014-03-19  II         9     0.7     400       35        2117.1      1982.74  
2014-04-02  II         9     0.7     400       35        2153.6      1841.86  
2013-06-19  III        7     5.9     2000      35        2346.42     2323.31  
2013-06-26  III        7     5.9     2000      35        2389.58     ND     
2013-07-10  III        7     5.9     2000      35        2440.49     2460.57  
2013-07-24  III        7     5.9     2000      35        2535.94     2567.21  
2013-08-07  III        7     5.9     2000      35        2683.7      2668.33  
2013-08-21  III        7     5.9     2000      35        2543.4      2530.11  
2013-09-05  III        7     5.9     2000      35        2547.55     2542.85  
2013-09-17  III        7     5.9     2000      35        2579.14     2552.6  
2013-10-02  III        7     5.9     2000      35        2412.26     2440.68  
2013-10-17  III        7     5.9     2000      35        2563.75     2560.38  
2013-10-30  III        7     5.9     2000      35        2486.00     2472.02  
2013-11-13  III        7     5.9     2000      35        2340.24     2344.35  
2013-12-11  III        7     5.9     2000      35        2395.00     2412.75  
2013-12-20  III        7     5.9     2000      35        2321.06     2360.05  
2014-01-08  III        7     5.9     2000      35        2297.28     2346.81  
2014-01-23  III        9     5.9     2000      35        2190.95     2212.62  
2014-02-06  III        9     5.9     2000      35        2188.1      2231.84  
2014-02-19  III        9     5.9     2000      35        2147.91     2169.81  
2014-03-19  III        9     5.9     2000      35        2277.3      2276.40  
2014-04-02  III        9     5.9     2000      35        2200.0      2235.99  
2013-06-19  IV         7     0.7     2000      35        2257.11     2288.24  
2013-06-26  IV         7     0.7     2000      35        2267.94     2359.83  
2013-07-10  IV         7     0.7     2000      35        2347.48     2332.29  
2013-07-24  IV         7     0.7     2000      35        2363.09     2353.97  
2013-08-07  IV         7     0.7     2000      35        2467.9      2468.15  
2013-08-21  IV         7     0.7     2000      35        2367.3      2362.00  
2013-09-05  IV         7     0.7     2000      35        2403.62     2423.02  
2013-09-17  IV         7     0.7     2000      35        2582.84     2585.31  
2013-10-02  IV         7     0.7     2000      35        2378.62     2411.23  
2013-10-17  IV         7     0.7     2000      35        2411.92     2409.47  
2013-10-30  IV         7     0.7     2000      35        2530.73     2524.81  
2013-11-13  IV         7     0.7     2000      35        2374.60     2376.20  
2013-12-11  IV         7     0.7     2000      35        2359.90     2394.70  
2013-12-20  IV         7     0.7     2000      35        2260.865    2309.15  
2014-01-08  IV         7     0.7     2000      35        2334.465    2367.77  
2014-01-23  IV         9     0.7     2000      35        2269.865    2291.92  
2014-02-06  IV         9     0.7     2000      35        2205.345    2200.74  
2014-02-19  IV         9     0.7     2000      35        2194.555    2216.3  
2014-03-19  IV         9     0.7     2000      35        2193.2      2181.81  
2014-04-02  IV         9     0.7     2000      35        2213.1      2086.40  
2013-06-19  V          7     4.9     275       35        2078.13     1938.21  
2013-06-26  V          7     4.9     275       35        2013.18     1815.74  
2013-07-10  V          7     4.9     275       35        1979.85     1834.47  
2013-07-24  V          7     4.9     275       35        1934.94     1809.13  
2013-08-07  V          7     4.9     275       35        1881.4      1704.98  
2013-08-21  V          7     4.9     275       35        1971.8      1774.69  
2013-09-05  V          7     4.9     275       35        1906.56     1703.37  
2013-09-17  V          7     4.9     275       35        1922.21     1832.30  
2013-10-02  V          7     4.9     275       35        1844.25     1669.87  
2013-10-17  V          7     4.9     275       35        1811.08     1662.57  
2013-10-30  V          7     4.9     275       35        1905.92     1733.59  
2013-11-13  V          7     4.9     275       35        1825.28     1661.64  
2013-12-11  V          7     4.9     275       35        1847.23     1727.95  
2013-12-20  V          7     4.9     275       35        1961.42     1802.62  
2014-01-08  V          7     4.9     275       35        1841.175    1714.69  
2014-01-23  V          9     4.9     275       35        2086.05     1957.54  
2014-02-06  V          9     4.9     275       35        1872.755    1713.97  
2014-02-19  V          9     4.9     275       35        1890.88     1717.26  
2014-03-19  V          9     4.9     275       35        1896.8      1693.88  
2014-04-02  V          9     4.9     275       35        1974.5      1784.36